DLH8ER EDDF-LDRI
Flight info
| Callsign | DLH8ER |
|---|---|
| Flight time | 1h 4m |
| Altitude | 33000 |
| Route | CINDY5L CINDY Z74 LAMPU DCT NOMBO Y161 MAH DCT VAVOR DCT RADIZ DCT VEKEN DCT GIRDA |
| Aircraft | A320/M-SDE3FGHIRWY/LB1 |
Departure
| Time | 2026-05-09 09:01 |
|---|---|
| Airport | Frankfurt Main Airport (EDDF) |
Arrival
| Time | 2026-05-09 10:05 |
|---|---|
| Airport | Rijeka Airport (LDRI) |
| Time | Latitude | Longitude | Altitude | Speed | Heading |
|---|---|---|---|---|---|
| 2026-05-09 08:43 | 50.04453 | 8.56431 | 364 ft | 0 kts | 154° |
| 2026-05-09 08:51 | 50.04466 | 8.56421 | 358 ft | 4 kts | 153° |
| 2026-05-09 08:51 | 50.04490 | 8.56402 | 361 ft | 4 kts | 162° |
| 2026-05-09 08:51 | 50.04519 | 8.56408 | 356 ft | 4 kts | 217° |
| 2026-05-09 08:51 | 50.04542 | 8.56431 | 361 ft | 4 kts | 209° |
| 2026-05-09 08:52 | 50.04566 | 8.56450 | 364 ft | 3 kts | 204° |
| 2026-05-09 08:52 | 50.04570 | 8.56453 | 356 ft | 0 kts | 204° |
| 2026-05-09 08:54 | 50.04529 | 8.56416 | 360 ft | 10 kts | 223° |
| 2026-05-09 08:54 | 50.04501 | 8.56321 | 358 ft | 10 kts | 250° |
| 2026-05-09 08:54 | 50.04461 | 8.56151 | 358 ft | 16 kts | 250° |
| 2026-05-09 08:54 | 50.04418 | 8.56031 | 356 ft | 11 kts | 207° |
| 2026-05-09 08:55 | 50.04347 | 8.56053 | 359 ft | 10 kts | 159° |
| 2026-05-09 08:55 | 50.04278 | 8.56060 | 358 ft | 11 kts | 212° |
| 2026-05-09 08:55 | 50.04240 | 8.55942 | 354 ft | 13 kts | 250° |
| 2026-05-09 08:55 | 50.04203 | 8.55788 | 355 ft | 16 kts | 249° |
| 2026-05-09 08:56 | 50.04154 | 8.55583 | 351 ft | 22 kts | 250° |
| 2026-05-09 08:56 | 50.04126 | 8.55466 | 351 ft | 22 kts | 250° |
| 2026-05-09 08:56 | 50.04084 | 8.55288 | 354 ft | 20 kts | 250° |
| 2026-05-09 08:56 | 50.04035 | 8.55086 | 359 ft | 20 kts | 250° |
| 2026-05-09 08:57 | 50.03981 | 8.54859 | 360 ft | 29 kts | 249° |
| 2026-05-09 08:57 | 50.03907 | 8.54547 | 356 ft | 32 kts | 250° |
| 2026-05-09 08:57 | 50.03832 | 8.54311 | 350 ft | 23 kts | 234° |
| 2026-05-09 08:57 | 50.03765 | 8.54074 | 350 ft | 25 kts | 250° |
| 2026-05-09 08:58 | 50.03700 | 8.53807 | 346 ft | 28 kts | 249° |
| 2026-05-09 08:58 | 50.03627 | 8.53512 | 340 ft | 30 kts | 248° |
| 2026-05-09 08:58 | 50.03558 | 8.53228 | 338 ft | 29 kts | 250° |
| 2026-05-09 08:58 | 50.03496 | 8.52969 | 336 ft | 19 kts | 249° |
| 2026-05-09 08:59 | 50.03446 | 8.52785 | 333 ft | 18 kts | 248° |
| 2026-05-09 08:59 | 50.03433 | 8.52729 | 332 ft | 0 kts | 250° |
| 2026-05-09 08:59 | 50.03417 | 8.52660 | 333 ft | 12 kts | 250° |
| 2026-05-09 09:00 | 50.03359 | 8.52594 | 332 ft | 11 kts | 181° |
| 2026-05-09 09:00 | 50.03167 | 8.52596 | 336 ft | 63 kts | 180° |
| 2026-05-09 09:00 | 50.02475 | 8.52602 | 335 ft | 132 kts | 179° |
| 2026-05-09 09:00 | 50.01400 | 8.52659 | 478 ft | 170 kts | 175° |
| 2026-05-09 09:01 | 50.00213 | 8.52656 | 1227 ft | 173 kts | 177° |
| 2026-05-09 09:01 | 49.98985 | 8.52647 | 1989 ft | 178 kts | 178° |
| 2026-05-09 09:01 | 49.97722 | 8.52676 | 2509 ft | 192 kts | 170° |
| 2026-05-09 09:01 | 49.96459 | 8.53576 | 2876 ft | 213 kts | 136° |
| 2026-05-09 09:02 | 49.95608 | 8.55455 | 3590 ft | 220 kts | 118° |
| 2026-05-09 09:02 | 49.94875 | 8.57574 | 4469 ft | 225 kts | 120° |
| 2026-05-09 09:02 | 49.94202 | 8.59805 | 5300 ft | 234 kts | 108° |
| 2026-05-09 09:02 | 49.93963 | 8.62429 | 5828 ft | 259 kts | 95° |
| 2026-05-09 09:03 | 49.93841 | 8.65326 | 6472 ft | 276 kts | 96° |
| 2026-05-09 09:03 | 49.93407 | 8.68237 | 7308 ft | 280 kts | 115° |
| 2026-05-09 09:03 | 49.92373 | 8.70808 | 8238 ft | 281 kts | 134° |
| 2026-05-09 09:03 | 49.90877 | 8.72756 | 9175 ft | 283 kts | 147° |
| 2026-05-09 09:04 | 49.89289 | 8.74583 | 10124 ft | 287 kts | 141° |
| 2026-05-09 09:04 | 49.87932 | 8.76925 | 10801 ft | 301 kts | 126° |
| 2026-05-09 09:04 | 49.86827 | 8.79837 | 11134 ft | 326 kts | 120° |
| 2026-05-09 09:04 | 49.85695 | 8.82993 | 11606 ft | 342 kts | 120° |
| 2026-05-09 09:05 | 49.84516 | 8.86278 | 12333 ft | 349 kts | 120° |
| 2026-05-09 09:05 | 49.83336 | 8.89552 | 13120 ft | 354 kts | 120° |
| 2026-05-09 09:05 | 49.82121 | 8.92909 | 13908 ft | 359 kts | 120° |
| 2026-05-09 09:05 | 49.80893 | 8.96296 | 14620 ft | 363 kts | 120° |
| 2026-05-09 09:06 | 49.79666 | 8.99672 | 15308 ft | 367 kts | 120° |
| 2026-05-09 09:06 | 49.78405 | 9.03129 | 16020 ft | 370 kts | 120° |
| 2026-05-09 09:06 | 49.77131 | 9.06619 | 16725 ft | 374 kts | 119° |
| 2026-05-09 09:06 | 49.76068 | 9.10313 | 17389 ft | 379 kts | 108° |
| 2026-05-09 09:07 | 49.75388 | 9.14277 | 18131 ft | 381 kts | 105° |
| 2026-05-09 09:07 | 49.74443 | 9.18127 | 18757 ft | 386 kts | 116° |
| 2026-05-09 09:07 | 49.73016 | 9.21665 | 19332 ft | 390 kts | 127° |
| 2026-05-09 09:07 | 49.71244 | 9.24855 | 19962 ft | 393 kts | 130° |
| 2026-05-09 09:08 | 49.69429 | 9.28037 | 20554 ft | 397 kts | 130° |
| 2026-05-09 09:08 | 49.67600 | 9.31255 | 21189 ft | 400 kts | 130° |
| 2026-05-09 09:08 | 49.65762 | 9.34492 | 21803 ft | 403 kts | 130° |
| 2026-05-09 09:08 | 49.63904 | 9.37767 | 22385 ft | 407 kts | 130° |
| 2026-05-09 09:09 | 49.61918 | 9.40899 | 22979 ft | 411 kts | 138° |
| 2026-05-09 09:09 | 49.59635 | 9.43485 | 23531 ft | 416 kts | 147° |
| 2026-05-09 09:09 | 49.57137 | 9.45779 | 24006 ft | 420 kts | 148° |
| 2026-05-09 09:09 | 49.54613 | 9.48082 | 24459 ft | 423 kts | 148° |
| 2026-05-09 09:10 | 49.52067 | 9.50403 | 24890 ft | 426 kts | 148° |
| 2026-05-09 09:10 | 49.49501 | 9.52738 | 25316 ft | 430 kts | 148° |
| 2026-05-09 09:10 | 49.46922 | 9.55084 | 25725 ft | 433 kts | 148° |
| 2026-05-09 09:10 | 49.44319 | 9.57449 | 26127 ft | 436 kts | 148° |
| 2026-05-09 09:11 | 49.41696 | 9.59828 | 26522 ft | 439 kts | 148° |
| 2026-05-09 09:11 | 49.39055 | 9.62223 | 26923 ft | 442 kts | 148° |
| 2026-05-09 09:11 | 49.36399 | 9.64629 | 27310 ft | 445 kts | 147° |
| 2026-05-09 09:11 | 49.33837 | 9.67313 | 27688 ft | 446 kts | 139° |
| 2026-05-09 09:12 | 49.31550 | 9.70540 | 28039 ft | 448 kts | 133° |
| 2026-05-09 09:12 | 49.29342 | 9.73938 | 28409 ft | 451 kts | 133° |
| 2026-05-09 09:12 | 49.27110 | 9.77368 | 28772 ft | 454 kts | 133° |
| 2026-05-09 09:12 | 49.24871 | 9.80794 | 29170 ft | 457 kts | 133° |
| 2026-05-09 09:13 | 49.22612 | 9.84232 | 29516 ft | 459 kts | 134° |
| 2026-05-09 09:13 | 49.20336 | 9.87685 | 29861 ft | 462 kts | 134° |
| 2026-05-09 09:13 | 49.18051 | 9.91151 | 30183 ft | 464 kts | 134° |
| 2026-05-09 09:13 | 49.15753 | 9.94636 | 30449 ft | 467 kts | 134° |
| 2026-05-09 09:14 | 49.13437 | 9.98139 | 30700 ft | 469 kts | 134° |
| 2026-05-09 09:14 | 49.11109 | 10.01649 | 30950 ft | 471 kts | 134° |
| 2026-05-09 09:14 | 49.08767 | 10.05171 | 31173 ft | 474 kts | 134° |
| 2026-05-09 09:14 | 49.06439 | 10.08673 | 31354 ft | 477 kts | 135° |
| 2026-05-09 09:15 | 49.04054 | 10.12203 | 31608 ft | 478 kts | 136° |
| 2026-05-09 09:15 | 49.01634 | 10.15673 | 31919 ft | 478 kts | 137° |
| 2026-05-09 09:15 | 48.99184 | 10.19105 | 32241 ft | 478 kts | 138° |
| 2026-05-09 09:15 | 48.96726 | 10.22514 | 32553 ft | 478 kts | 139° |
| 2026-05-09 09:16 | 48.94269 | 10.25923 | 32876 ft | 479 kts | 138° |
| 2026-05-09 09:16 | 48.89379 | 10.32760 | 33148 ft | 472 kts | 138° |
| 2026-05-09 09:16 | 48.86981 | 10.36138 | 33144 ft | 468 kts | 138° |
| 2026-05-09 09:17 | 48.82227 | 10.42870 | 33144 ft | 467 kts | 137° |
| 2026-05-09 09:17 | 48.77677 | 10.49951 | 33148 ft | 469 kts | 134° |
| 2026-05-09 09:18 | 48.73264 | 10.57258 | 33149 ft | 470 kts | 134° |
| 2026-05-09 09:18 | 48.68848 | 10.64464 | 33148 ft | 470 kts | 135° |
| 2026-05-09 09:19 | 48.64304 | 10.71691 | 33138 ft | 470 kts | 136° |
| 2026-05-09 09:19 | 48.59873 | 10.78979 | 33135 ft | 471 kts | 132° |
| 2026-05-09 09:20 | 48.55785 | 10.86632 | 33104 ft | 472 kts | 130° |
| 2026-05-09 09:20 | 48.51737 | 10.94447 | 33115 ft | 473 kts | 131° |
| 2026-05-09 09:21 | 48.47595 | 11.02187 | 33114 ft | 473 kts | 132° |
| 2026-05-09 09:21 | 48.43393 | 11.09830 | 33115 ft | 473 kts | 133° |
| 2026-05-09 09:22 | 48.39176 | 11.17472 | 33116 ft | 474 kts | 132° |
| 2026-05-09 09:22 | 48.34986 | 11.25120 | 33102 ft | 474 kts | 133° |
| 2026-05-09 09:23 | 48.30826 | 11.32722 | 33106 ft | 475 kts | 133° |
| 2026-05-09 09:23 | 48.26613 | 11.40376 | 33110 ft | 475 kts | 133° |
| 2026-05-09 09:24 | 48.22394 | 11.47997 | 33111 ft | 475 kts | 133° |
| 2026-05-09 09:24 | 48.18166 | 11.55609 | 33112 ft | 475 kts | 133° |
| 2026-05-09 09:25 | 48.13942 | 11.63212 | 33112 ft | 475 kts | 134° |
| 2026-05-09 09:25 | 48.09703 | 11.70825 | 33110 ft | 476 kts | 134° |
| 2026-05-09 09:26 | 48.05499 | 11.78362 | 33110 ft | 476 kts | 134° |
| 2026-05-09 09:26 | 48.01375 | 11.85718 | 33090 ft | 476 kts | 134° |
| 2026-05-09 09:27 | 47.97131 | 11.93257 | 33099 ft | 476 kts | 134° |
| 2026-05-09 09:27 | 47.92921 | 12.00719 | 33099 ft | 477 kts | 134° |
| 2026-05-09 09:28 | 47.88646 | 12.08283 | 33105 ft | 477 kts | 134° |
| 2026-05-09 09:28 | 47.84360 | 12.15844 | 33109 ft | 477 kts | 135° |
| 2026-05-09 09:29 | 47.80075 | 12.23387 | 33116 ft | 477 kts | 135° |
| 2026-05-09 09:29 | 47.75782 | 12.30930 | 33099 ft | 477 kts | 135° |
| 2026-05-09 09:30 | 47.71487 | 12.38439 | 33117 ft | 476 kts | 135° |
| 2026-05-09 09:30 | 47.67186 | 12.45925 | 33122 ft | 476 kts | 135° |
| 2026-05-09 09:31 | 47.62710 | 12.53025 | 33120 ft | 469 kts | 145° |
| 2026-05-09 09:32 | 47.54486 | 12.60450 | 33120 ft | 460 kts | 157° |
| 2026-05-09 09:32 | 47.48870 | 12.64966 | 33112 ft | 458 kts | 157° |
| 2026-05-09 09:33 | 47.43267 | 12.69470 | 33119 ft | 458 kts | 157° |
| 2026-05-09 09:33 | 47.37662 | 12.73959 | 33128 ft | 458 kts | 157° |
| 2026-05-09 09:34 | 47.32062 | 12.78438 | 33124 ft | 457 kts | 157° |
| 2026-05-09 09:34 | 47.26470 | 12.82903 | 33115 ft | 457 kts | 156° |
| 2026-05-09 09:36 | 47.04123 | 13.00624 | 33111 ft | 455 kts | 156° |
| 2026-05-09 09:37 | 46.98548 | 13.05022 | 33133 ft | 454 kts | 156° |
| 2026-05-09 09:37 | 46.93926 | 13.08665 | 33130 ft | 453 kts | 156° |
| 2026-05-09 09:38 | 46.88373 | 13.13012 | 33130 ft | 452 kts | 156° |
| 2026-05-09 09:38 | 46.81923 | 13.18054 | 33105 ft | 452 kts | 156° |
| 2026-05-09 09:39 | 46.77279 | 13.21686 | 33114 ft | 451 kts | 156° |
| 2026-05-09 09:39 | 46.70849 | 13.26701 | 33117 ft | 451 kts | 156° |
| 2026-05-09 09:40 | 46.66252 | 13.30275 | 33112 ft | 450 kts | 156° |
| 2026-05-09 09:40 | 46.60724 | 13.34557 | 33105 ft | 450 kts | 156° |
| 2026-05-09 09:41 | 46.55198 | 13.38816 | 33099 ft | 448 kts | 158° |
| 2026-05-09 09:41 | 46.49629 | 13.42830 | 33096 ft | 446 kts | 159° |
| 2026-05-09 09:42 | 46.44035 | 13.46690 | 33097 ft | 445 kts | 159° |
| 2026-05-09 09:42 | 46.38451 | 13.50571 | 33091 ft | 445 kts | 159° |
| 2026-05-09 09:43 | 46.32883 | 13.54489 | 33070 ft | 445 kts | 159° |
| 2026-05-09 09:43 | 46.27316 | 13.58407 | 33077 ft | 445 kts | 159° |
| 2026-05-09 09:44 | 46.21769 | 13.62296 | 33073 ft | 446 kts | 159° |
| 2026-05-09 09:44 | 46.16182 | 13.66191 | 33081 ft | 446 kts | 159° |
| 2026-05-09 09:45 | 46.10578 | 13.70107 | 33070 ft | 448 kts | 159° |
| 2026-05-09 09:45 | 46.07772 | 13.72062 | 32823 ft | 447 kts | 159° |
| 2026-05-09 09:45 | 46.04971 | 13.74003 | 32547 ft | 446 kts | 159° |
| 2026-05-09 09:45 | 46.02188 | 13.75925 | 31936 ft | 443 kts | 159° |
| 2026-05-09 09:46 | 45.99412 | 13.77843 | 31302 ft | 440 kts | 159° |
| 2026-05-09 09:46 | 45.96656 | 13.79752 | 30662 ft | 438 kts | 159° |
| 2026-05-09 09:46 | 45.93928 | 13.81644 | 30020 ft | 435 kts | 159° |
| 2026-05-09 09:46 | 45.91210 | 13.83526 | 29363 ft | 431 kts | 159° |
| 2026-05-09 09:47 | 45.88515 | 13.85389 | 28687 ft | 430 kts | 159° |
| 2026-05-09 09:47 | 45.85822 | 13.87245 | 27938 ft | 429 kts | 159° |
| 2026-05-09 09:47 | 45.83132 | 13.89095 | 27211 ft | 428 kts | 159° |
| 2026-05-09 09:47 | 45.80449 | 13.90938 | 26608 ft | 424 kts | 158° |
| 2026-05-09 09:48 | 45.77834 | 13.92732 | 26032 ft | 421 kts | 158° |
| 2026-05-09 09:48 | 45.75204 | 13.94531 | 25467 ft | 418 kts | 158° |
| 2026-05-09 09:48 | 45.72591 | 13.96323 | 24913 ft | 415 kts | 158° |
| 2026-05-09 09:48 | 45.69999 | 13.98102 | 24361 ft | 412 kts | 158° |
| 2026-05-09 09:49 | 45.67410 | 13.99876 | 23824 ft | 410 kts | 158° |
| 2026-05-09 09:49 | 45.64839 | 14.01638 | 23224 ft | 409 kts | 158° |
| 2026-05-09 09:49 | 45.62280 | 14.03386 | 22602 ft | 407 kts | 158° |
| 2026-05-09 09:49 | 45.59729 | 14.05122 | 21995 ft | 406 kts | 158° |
| 2026-05-09 09:50 | 45.57183 | 14.06853 | 21408 ft | 404 kts | 157° |
| 2026-05-09 09:50 | 45.54652 | 14.08574 | 20811 ft | 402 kts | 157° |
| 2026-05-09 09:50 | 45.52129 | 14.10289 | 20239 ft | 401 kts | 157° |
| 2026-05-09 09:50 | 45.49615 | 14.11997 | 19675 ft | 398 kts | 156° |
| 2026-05-09 09:51 | 45.47152 | 14.13783 | 19114 ft | 398 kts | 150° |
| 2026-05-09 09:51 | 45.44829 | 14.15928 | 18572 ft | 396 kts | 148° |
| 2026-05-09 09:51 | 45.42532 | 14.18071 | 17978 ft | 394 kts | 148° |
| 2026-05-09 09:51 | 45.40244 | 14.20205 | 17369 ft | 392 kts | 148° |
| 2026-05-09 09:52 | 45.37966 | 14.22327 | 16770 ft | 390 kts | 148° |
| 2026-05-09 09:52 | 45.35705 | 14.24426 | 16178 ft | 387 kts | 148° |
| 2026-05-09 09:52 | 45.33451 | 14.26516 | 15598 ft | 385 kts | 148° |
| 2026-05-09 09:52 | 45.31214 | 14.28589 | 15033 ft | 383 kts | 148° |
| 2026-05-09 09:53 | 45.29012 | 14.30627 | 14494 ft | 380 kts | 148° |
| 2026-05-09 09:53 | 45.26810 | 14.32668 | 14017 ft | 375 kts | 148° |
| 2026-05-09 09:53 | 45.24640 | 14.34679 | 13485 ft | 371 kts | 148° |
| 2026-05-09 09:53 | 45.22490 | 14.36667 | 12969 ft | 366 kts | 148° |
| 2026-05-09 09:54 | 45.20370 | 14.38620 | 12450 ft | 361 kts | 147° |
| 2026-05-09 09:54 | 45.18275 | 14.40549 | 11938 ft | 357 kts | 147° |
| 2026-05-09 09:54 | 45.16200 | 14.42457 | 11433 ft | 353 kts | 147° |
| 2026-05-09 09:54 | 45.14155 | 14.44350 | 10940 ft | 349 kts | 146° |
| 2026-05-09 09:55 | 45.12178 | 14.46309 | 10454 ft | 345 kts | 144° |
| 2026-05-09 09:55 | 45.10255 | 14.48314 | 9974 ft | 341 kts | 143° |
| 2026-05-09 09:55 | 45.08377 | 14.50313 | 9439 ft | 330 kts | 143° |
| 2026-05-09 09:55 | 45.06588 | 14.52218 | 8925 ft | 314 kts | 143° |
| 2026-05-09 09:56 | 45.04873 | 14.54029 | 8407 ft | 300 kts | 143° |
| 2026-05-09 09:56 | 45.03224 | 14.55756 | 7902 ft | 290 kts | 143° |
| 2026-05-09 09:56 | 45.01614 | 14.57430 | 7408 ft | 285 kts | 143° |
| 2026-05-09 09:56 | 45.00018 | 14.59082 | 6954 ft | 282 kts | 143° |
| 2026-05-09 09:57 | 44.98459 | 14.60694 | 6757 ft | 271 kts | 143° |
| 2026-05-09 09:57 | 44.96979 | 14.62223 | 6566 ft | 256 kts | 143° |
| 2026-05-09 09:57 | 44.95585 | 14.63679 | 6366 ft | 242 kts | 140° |
| 2026-05-09 09:57 | 44.94563 | 14.65488 | 6147 ft | 234 kts | 112° |
| 2026-05-09 09:58 | 44.94238 | 14.67686 | 5908 ft | 229 kts | 86° |
| 2026-05-09 09:58 | 44.94626 | 14.69835 | 5684 ft | 226 kts | 60° |
| 2026-05-09 09:58 | 44.95513 | 14.71653 | 5467 ft | 225 kts | 53° |
| 2026-05-09 09:58 | 44.96441 | 14.73435 | 5242 ft | 225 kts | 53° |
| 2026-05-09 09:59 | 44.97366 | 14.75214 | 5019 ft | 225 kts | 53° |
| 2026-05-09 09:59 | 44.98295 | 14.76979 | 4799 ft | 224 kts | 50° |
| 2026-05-09 09:59 | 44.99528 | 14.78206 | 4567 ft | 222 kts | 16° |
| 2026-05-09 09:59 | 45.01051 | 14.78206 | 4331 ft | 223 kts | 342° |
| 2026-05-09 10:00 | 45.02370 | 14.77045 | 4083 ft | 226 kts | 323° |
| 2026-05-09 10:00 | 45.03623 | 14.75705 | 3828 ft | 226 kts | 324° |
| 2026-05-09 10:00 | 45.04883 | 14.74404 | 3643 ft | 220 kts | 324° |
| 2026-05-09 10:00 | 45.06094 | 14.73165 | 3510 ft | 208 kts | 326° |
| 2026-05-09 10:01 | 45.07222 | 14.72012 | 3379 ft | 192 kts | 325° |
| 2026-05-09 10:01 | 45.08279 | 14.70931 | 3253 ft | 185 kts | 324° |
| 2026-05-09 10:01 | 45.09321 | 14.69865 | 3104 ft | 184 kts | 324° |
| 2026-05-09 10:01 | 45.10364 | 14.68795 | 2871 ft | 185 kts | 323° |
| 2026-05-09 10:02 | 45.11396 | 14.67733 | 2607 ft | 183 kts | 323° |
| 2026-05-09 10:02 | 45.12419 | 14.66678 | 2349 ft | 181 kts | 323° |
| 2026-05-09 10:02 | 45.13434 | 14.65630 | 2102 ft | 180 kts | 323° |
| 2026-05-09 10:02 | 45.14406 | 14.64625 | 1901 ft | 170 kts | 323° |
| 2026-05-09 10:03 | 45.15329 | 14.63658 | 1649 ft | 156 kts | 321° |
| 2026-05-09 10:03 | 45.16165 | 14.62784 | 1443 ft | 145 kts | 322° |
| 2026-05-09 10:03 | 45.16962 | 14.61957 | 1238 ft | 139 kts | 321° |
| 2026-05-09 10:03 | 45.17733 | 14.61158 | 1069 ft | 136 kts | 322° |
| 2026-05-09 10:04 | 45.18487 | 14.60371 | 826 ft | 132 kts | 322° |
| 2026-05-09 10:04 | 45.19227 | 14.59603 | 727 ft | 132 kts | 321° |
| 2026-05-09 10:04 | 45.19968 | 14.58843 | 513 ft | 129 kts | 322° |
| 2026-05-09 10:04 | 45.20694 | 14.58093 | 310 ft | 130 kts | 323° |
| 2026-05-09 10:05 | 45.21349 | 14.57411 | 264 ft | 88 kts | 324° |
| 2026-05-09 10:05 | 45.21610 | 14.57183 | 265 ft | 16 kts | 15° |
| 2026-05-09 10:05 | 45.21677 | 14.57200 | 266 ft | 9 kts | 359° |
| 2026-05-09 10:05 | 45.21751 | 14.57203 | 268 ft | 12 kts | 2° |
| 2026-05-09 10:06 | 45.21799 | 14.57195 | 269 ft | 7 kts | 326° |
| 2026-05-09 10:06 | 45.21858 | 14.57133 | 268 ft | 12 kts | 323° |
| 2026-05-09 10:06 | 45.21911 | 14.57091 | 268 ft | 4 kts | 12° |
| 2026-05-09 10:06 | 45.21920 | 14.57113 | 269 ft | 2 kts | 72° |
| 2026-05-09 10:07 | 45.21919 | 14.57127 | 269 ft | 1 kts | 96° |
| 2026-05-09 10:07 | 45.21918 | 14.57133 | 269 ft | 1 kts | 104° |
| 2026-05-09 10:07 | 45.21917 | 14.57139 | 269 ft | 0 kts | 103° |